Time;durP1;ratioP1;P1;durP2;ratioP2;P2;SDS_P1;SDS_P2;PMS_P1;PMS_P2;Temp;Humidity;BMP_temperature;BMP_pressure;BME280_temperature;BME280_humidity;BME280_pressure;Samples;Min_cycle;Max_cycle;Signal;HPM_P1;HPM_P2
2023/09/10 00:00:10;;;;;;;394.65;320.23;;;;;;;20.29;60.69;99911.25;316494;30;3900;-70
2023/09/10 00:00:20;;;;;;;391.58;315.52;;;;;;;20.26;60.68;99907.84;319947;30;4607;-70
2023/09/10 00:00:30;;;;;;;387.65;310.02;;;;;;;20.23;61.13;99910.75;322319;30;4557;-70
2023/09/10 00:00:41;;;;;;;385.53;311.03;;;;;;;20.18;61.18;99902.28;321986;30;983;-70
2023/09/10 00:00:52;;;;;;;388.30;315.03;;;;;;;20.14;61.40;99906.13;318791;30;3420;-70
2023/09/10 00:01:03;;;;;;;388.45;314.02;;;;;;;20.11;61.35;99906.34;318209;30;3101;-70
2023/09/10 00:01:13;;;;;;;385.88;308.15;;;;;;;20.11;61.32;99911.66;316220;31;792;-70
2023/09/10 00:01:23;;;;;;;385.57;306.30;;;;;;;20.13;61.00;99904.44;312160;31;4076;-70
2023/09/10 00:01:34;;;;;;;386.83;308.97;;;;;;;20.14;61.20;99907.94;314274;31;5075;-70
2023/09/10 00:01:44;;;;;;;385.20;302.35;;;;;;;20.14;61.24;99903.47;313956;31;5245;-70
2023/09/10 00:01:55;;;;;;;382.47;298.17;;;;;;;20.14;61.46;99906.13;311440;31;1252;-70
2023/09/10 00:02:05;;;;;;;381.58;295.80;;;;;;;20.16;61.37;99912.16;312491;31;5169;-70
2023/09/10 00:02:15;;;;;;;392.03;302.37;;;;;;;20.19;61.57;99911.09;309967;31;4848;-70
2023/09/10 00:02:26;;;;;;;396.10;309.80;;;;;;;20.18;61.77;99902.28;313934;31;858;-70
2023/09/10 00:02:36;;;;;;;395.08;306.08;;;;;;;20.19;61.45;99909.28;311843;31;5919;-70
2023/09/10 00:02:47;;;;;;;388.83;306.80;;;;;;;20.21;61.65;99901.19;309116;31;6404;-70
2023/09/10 00:02:57;;;;;;;388.27;303.63;;;;;;;20.24;61.24;99906.28;306124;32;908;-70
2023/09/10 00:03:07;;;;;;;389.10;307.20;;;;;;;20.24;61.09;99904.47;304290;31;4635;-70
2023/09/10 00:03:18;;;;;;;388.43;306.43;;;;;;;20.26;61.30;99905.19;304640;32;4800;-70
2023/09/10 00:03:28;;;;;;;389.50;310.40;;;;;;;20.26;61.15;99907.84;306211;32;891;-70
2023/09/10 00:03:39;;;;;;;389.58;309.08;;;;;;;20.24;61.37;99904.47;304105;32;1426;-70
2023/09/10 00:03:49;;;;;;;390.70;310.13;;;;;;;20.25;61.11;99905.31;300896;32;7164;-70
2023/09/10 00:03:59;;;;;;;388.87;306.27;;;;;;;20.24;61.17;99904.47;298961;32;7451;-70
2023/09/10 00:04:10;;;;;;;389.55;309.38;;;;;;;20.24;61.25;99899.16;301005;32;896;-70
2023/09/10 00:04:20;;;;;;;388.70;307.90;;;;;;;20.22;61.23;99903.75;298415;32;7099;-70
2023/09/10 00:04:32;;;;;;;389.60;308.23;;;;;;;20.22;61.37;99900.22;298550;32;7006;-70
2023/09/10 00:04:43;;;;;;;385.67;302.08;;;;;;;20.22;61.50;99905.53;304055;32;1635;-70
2023/09/10 00:04:53;;;;;;;386.27;304.90;;;;;;;20.25;61.36;99902.66;298563;32;8007;-70
2023/09/10 00:05:07;;;;;;;387.97;309.53;;;;;;;20.24;61.46;99899.16;297895;32;8931;-70
2023/09/10 00:05:17;;;;;;;387.67;307.38;;;;;;;20.26;61.30;99896.38;296986;32;6347;-70
2023/09/10 00:05:33;;;;;;;388.07;303.97;;;;;;;20.25;61.19;99900.84;296909;33;862;-70
2023/09/10 00:05:43;;;;;;;390.67;313.35;;;;;;;20.24;61.16;99904.47;293912;33;929;-70
2023/09/10 00:05:53;;;;;;;386.75;306.35;;;;;;;20.22;61.65;99906.41;293569;33;8249;-70
2023/09/10 00:06:07;;;;;;;386.77;306.37;;;;;;;20.23;61.43;99901.94;295622;33;9533;-70
2023/09/10 00:06:18;;;;;;;384.27;302.58;;;;;;;20.23;61.19;99902.78;294902;33;10041;-70
2023/09/10 00:06:28;;;;;;;384.13;304.27;;;;;;;20.25;61.21;99905.31;295981;33;842;-70
2023/09/10 00:06:38;;;;;;;385.52;301.25;;;;;;;20.27;61.56;99908.69;297216;33;9871;-70
2023/09/10 00:08:32;;;;;;;379.49;289.66;;;;;;;20.25;61.26;99906.16;2500473;27;20491;-70
2023/09/10 00:08:42;;;;;;;389.90;315.08;;;;;;;20.25;61.31;99900.84;352756;28;1302;-70
2023/09/10 00:08:53;;;;;;;393.83;327.03;;;;;;;20.25;61.20;99911.47;350273;28;875;-70
2023/09/10 00:09:03;;;;;;;391.33;327.63;;;;;;;20.27;61.27;99898.91;348421;28;916;-70
2023/09/10 00:09:14;;;;;;;391.60;323.67;;;;;;;20.26;61.52;99902.53;347452;28;907;-70
2023/09/10 00:09:24;;;;;;;388.00;311.23;;;;;;;20.25;61.45;99903.50;350233;28;815;-70
2023/09/10 00:09:34;;;;;;;389.30;309.70;;;;;;;20.25;61.44;99902.66;350060;28;1187;-70
2023/09/10 00:09:45;;;;;;;388.77;311.35;;;;;;;20.23;61.29;99902.78;350146;28;828;-70
2023/09/10 00:09:55;;;;;;;390.37;320.87;;;;;;;20.22;61.30;99906.41;347227;28;1268;-70
2023/09/10 00:10:06;;;;;;;391.02;326.35;;;;;;;20.22;61.19;99905.53;347452;28;982;-70
2023/09/10 00:10:17;;;;;;;391.00;327.83;;;;;;;20.21;61.48;99899.38;349982;28;1200;-70
2023/09/10 00:10:28;;;;;;;387.45;316.27;;;;;;;20.22;61.37;99901.06;350943;28;1853;-70
2023/09/10 00:10:39;;;;;;;387.60;315.10;;;;;;;20.22;61.39;99902.88;351440;28;998;-70
2023/09/10 00:10:49;;;;;;;388.00;312.67;;;;;;;20.22;61.06;99901.06;348769;28;916;-70
2023/09/10 00:11:00;;;;;;;389.45;315.40;;;;;;;20.22;61.37;99906.41;351329;28;1427;-70
2023/09/10 00:11:11;;;;;;;390.20;316.15;;;;;;;20.21;61.16;99904.69;350140;28;1256;-70
2023/09/10 00:11:21;;;;;;;390.90;318.63;;;;;;;20.20;61.44;99905.66;351534;28;895;-70
2023/09/10 00:11:32;;;;;;;392.13;322.38;;;;;;;20.20;61.22;99907.47;351645;28;899;-70
2023/09/10 00:11:42;;;;;;;392.10;325.80;;;;;;;20.17;61.54;99908.56;350154;28;842;-70
2023/09/10 00:11:52;;;;;;;395.00;323.35;;;;;;;20.17;61.47;99907.72;348552;28;1297;-71
2023/09/10 00:12:03;;;;;;;395.57;323.13;;;;;;;20.18;61.38;99904.94;347334;28;1374;-71
2023/09/10 00:12:13;;;;;;;394.15;314.00;;;;;;;20.16;61.27;99901.53;347270;28;961;-71
2023/09/10 00:12:24;;;;;;;390.43;316.83;;;;;;;20.16;61.37;99901.53;348374;28;1078;-71
2023/09/10 00:12:34;;;;;;;388.90;313.20;;;;;;;20.16;61.38;99909.50;348634;28;1235;-71
2023/09/10 00:12:44;;;;;;;389.73;315.15;;;;;;;20.14;61.54;99908.78;350024;28;894;-71
2023/09/10 00:12:55;;;;;;;389.73;314.80;;;;;;;20.14;61.43;99906.13;349324;28;975;-71
2023/09/10 00:13:05;;;;;;;392.25;322.30;;;;;;;20.14;61.54;99906.13;347325;28;847;-71
2023/09/10 00:13:16;;;;;;;393.90;328.13;;;;;;;20.14;61.54;99903.47;347381;28;843;-71
2023/09/10 00:13:26;;;;;;;393.10;326.70;;;;;;;20.14;61.61;99908.78;344657;28;935;-71
2023/09/10 00:13:36;;;;;;;391.92;325.55;;;;;;;20.14;61.67;99902.63;344568;28;1428;-71
2023/09/10 00:13:47;;;;;;;392.63;329.23;;;;;;;20.13;61.54;99907.09;346044;28;1156;-70
2023/09/10 00:13:57;;;;;;;394.38;334.50;;;;;;;20.10;61.76;99904.66;345802;28;901;-70
2023/09/10 00:14:08;;;;;;;393.37;328.83;;;;;;;20.10;61.87;99909.97;345805;28;1288;-70
2023/09/10 00:14:18;;;;;;;391.27;321.80;;;;;;;20.08;61.82;99903.94;344664;28;821;-70
2023/09/10 00:14:28;;;;;;;394.03;320.70;;;;;;;20.09;61.32;99902.97;344055;28;1191;-70
2023/09/10 00:14:39;;;;;;;394.03;319.20;;;;;;;20.07;61.91;99896.91;344091;28;1486;-70
2023/09/10 00:14:49;;;;;;;395.00;323.15;;;;;;;20.07;61.86;99904.88;344686;28;877;-70
2023/09/10 00:14:59;;;;;;;391.03;323.17;;;;;;;20.08;61.69;99898.63;342994;28;1240;-70
2023/09/10 00:15:10;;;;;;;390.13;324.00;;;;;;;20.09;61.67;99900.31;341699;28;1209;-70
2023/09/10 00:15:20;;;;;;;387.93;316.27;;;;;;;20.10;61.85;99901.16;344515;28;1114;-70
2023/09/10 00:15:31;;;;;;;385.70;305.17;;;;;;;20.10;61.75;99904.66;343335;28;1217;-70
2023/09/10 00:15:41;;;;;;;384.55;299.50;;;;;;;20.09;61.79;99900.31;343286;28;1261;-70
2023/09/10 00:15:52;;;;;;;386.60;302.60;;;;;;;20.10;61.77;99894.03;344672;28;913;-70
2023/09/10 00:16:02;;;;;;;386.73;304.88;;;;;;;20.10;61.82;99896.69;341893;28;1173;-70
2023/09/10 00:16:13;;;;;;;389.67;309.13;;;;;;;20.10;62.11;99902.00;340779;28;932;-70
2023/09/10 00:16:23;;;;;;;388.37;305.73;;;;;;;20.11;61.84;99906.34;338931;28;1377;-70
2023/09/10 00:16:33;;;;;;;390.30;310.53;;;;;;;20.12;62.08;99900.06;342966;28;1267;-70
2023/09/10 00:16:44;;;;;;;388.10;310.70;;;;;;;20.12;62.03;99899.22;344243;28;1336;-70
2023/09/10 00:16:54;;;;;;;387.33;309.53;;;;;;;20.11;62.08;99898.38;342302;28;1331;-70
2023/09/10 00:17:05;;;;;;;385.15;305.08;;;;;;;20.10;61.91;99906.47;340715;29;936;-70
2023/09/10 00:17:15;;;;;;;384.97;302.27;;;;;;;20.11;62.13;99898.38;339125;29;1527;-70
2023/09/10 00:17:25;;;;;;;386.05;305.45;;;;;;;20.13;61.75;99909.75;340453;28;1918;-70
2023/09/10 00:17:36;;;;;;;385.87;301.73;;;;;;;20.15;61.98;99904.31;340570;28;1257;-70
2023/09/10 00:17:46;;;;;;;387.97;301.00;;;;;;;20.16;62.19;99900.69;340653;29;851;-70
2023/09/10 00:17:56;;;;;;;385.58;297.17;;;;;;;20.16;61.85;99900.69;338738;29;1034;-70
2023/09/10 00:18:07;;;;;;;390.03;305.53;;;;;;;20.16;61.94;99906.00;343028;28;1249;-70
2023/09/10 00:18:18;;;;;;;387.67;305.67;;;;;;;20.15;62.25;99905.16;343159;28;1332;-70
2023/09/10 00:18:28;;;;;;;389.77;310.73;;;;;;;20.12;62.28;99904.53;335570;29;1431;-70
2023/09/10 00:18:39;;;;;;;386.93;309.43;;;;;;;20.10;62.57;99902.00;333653;29;1813;-70
2023/09/10 00:18:49;;;;;;;391.00;314.08;;;;;;;20.11;62.34;99900.19;336738;29;1310;-70
2023/09/10 00:18:59;;;;;;;388.23;308.33;;;;;;;20.10;62.30;99904.66;338687;29;1982;-70
2023/09/10 00:19:12;;;;;;;388.97;309.50;;;;;;;20.09;62.43;99900.31;335723;29;1966;-70
2023/09/10 00:19:22;;;;;;;390.95;315.80;;;;;;;20.10;62.57;99904.66;334207;29;2290;-70
2023/09/10 00:19:33;;;;;;;391.60;316.07;;;;;;;20.08;62.51;99903.09;335405;29;984;-70
2023/09/10 00:19:43;;;;;;;389.35;313.13;;;;;;;20.09;62.56;99900.31;329573;29;1617;-70
2023/09/10 00:19:53;;;;;;;386.27;306.27;;;;;;;20.09;62.43;99910.09;331395;29;1221;-70
2023/09/10 00:20:10;;;;;;;385.23;302.13;;;;;;;20.09;62.34;99900.31;334226;29;897;-70
2023/09/10 00:20:20;;;;;;;384.77;302.00;;;;;;;20.09;62.45;99908.28;328831;30;1762;-70
2023/09/10 00:20:31;;;;;;;385.33;305.13;;;;;;;20.10;62.30;99907.31;328929;30;1435;-70
2023/09/10 00:20:41;;;;;;;387.08;310.17;;;;;;;20.10;62.49;99909.13;329551;29;2372;-70
2023/09/10 00:20:52;;;;;;;389.03;316.50;;;;;;;20.09;62.43;99900.31;330223;29;2335;-70
2023/09/10 00:21:03;;;;;;;389.45;317.92;;;;;;;20.09;62.23;99904.78;330379;29;1404;-70
2023/09/10 00:21:14;;;;;;;388.15;311.95;;;;;;;20.09;62.41;99905.63;333347;29;2353;-70
2023/09/10 00:21:24;;;;;;;386.80;307.95;;;;;;;20.09;62.25;99905.63;330797;29;2802;-70
2023/09/10 00:21:34;;;;;;;388.57;309.37;;;;;;;20.09;62.40;99905.63;326730;30;1278;-70
2023/09/10 00:21:45;;;;;;;388.83;310.50;;;;;;;20.10;62.42;99896.69;326391;30;2670;-70
2023/09/10 00:21:55;;;;;;;388.47;309.97;;;;;;;20.11;62.47;99901.03;326959;30;1895;-70
2023/09/10 00:22:05;;;;;;;387.07;309.37;;;;;;;20.10;62.40;99907.31;324039;30;1343;-70
2023/09/10 00:22:16;;;;;;;388.20;313.55;;;;;;;20.07;62.36;99899.56;325554;30;928;-70
2023/09/10 00:22:26;;;;;;;386.70;305.73;;;;;;;20.09;62.24;99904.78;326500;30;2266;-70
2023/09/10 00:22:37;;;;;;;387.83;305.42;;;;;;;20.08;62.15;99903.94;326243;29;2609;-70
2023/09/10 00:22:48;;;;;;;387.27;305.00;;;;;;;20.09;62.16;99910.94;326587;30;1044;-70
2023/09/10 00:22:59;;;;;;;388.23;312.23;;;;;;;20.08;62.47;99903.94;327095;30;2874;-70
2023/09/10 00:23:09;;;;;;;387.70;306.70;;;;;;;20.07;62.37;99904.88;327517;29;3252;-70
2023/09/10 00:23:20;;;;;;;387.13;308.20;;;;;;;20.08;62.32;99911.91;327893;30;1258;-70
2023/09/10 00:23:30;;;;;;;390.73;315.00;;;;;;;20.07;62.79;99896.91;326236;30;3306;-70
2023/09/10 00:23:40;;;;;;;391.35;318.58;;;;;;;20.07;62.23;99901.38;326987;30;3532;-70
2023/09/10 00:23:51;;;;;;;390.60;315.10;;;;;;;20.08;62.64;99903.09;327604;30;3425;-70
2023/09/10 00:24:01;;;;;;;387.67;309.90;;;;;;;20.06;62.60;99905.00;329125;30;876;-70
2023/09/10 00:24:13;;;;;;;390.13;314.17;;;;;;;20.04;62.90;99907.78;328669;30;2491;-70
2023/09/10 00:24:23;;;;;;;391.45;316.55;;;;;;;20.03;62.90;99906.09;328626;29;2249;-71
2023/09/10 00:24:34;;;;;;;388.90;314.23;;;;;;;20.03;62.85;99906.09;326680;30;1511;-70
2023/09/10 00:24:44;;;;;;;387.63;311.60;;;;;;;20.03;62.81;99906.09;322602;30;3282;-70
2023/09/10 00:24:54;;;;;;;388.77;308.48;;;;;;;20.04;62.75;99907.78;321601;30;3840;-70
2023/09/10 00:25:05;;;;;;;390.93;310.50;;;;;;;20.04;62.14;99907.78;321860;30;1228;-70
2023/09/10 00:25:15;;;;;;;388.65;308.25;;;;;;;20.03;62.88;99900.75;313899;31;1232;-70
2023/09/10 00:25:26;;;;;;;388.63;309.73;;;;;;;20.06;62.74;99910.31;317859;30;4331;-70
2023/09/10 00:25:36;;;;;;;385.52;302.38;;;;;;;20.04;62.53;99902.47;315239;31;4376;-70
2023/09/10 00:25:47;;;;;;;385.23;304.60;;;;;;;20.07;62.92;99912.00;312723;31;1266;-71
2023/09/10 00:25:58;;;;;;;383.65;303.35;;;;;;;20.07;63.00;99901.38;310029;31;4759;-71
2023/09/10 00:26:09;;;;;;;386.42;312.23;;;;;;;20.09;62.61;99905.63;309245;31;4537;-71
2023/09/10 00:26:19;;;;;;;385.08;307.25;;;;;;;20.10;62.48;99904.66;312751;31;965;-71
2023/09/10 00:26:30;;;;;;;384.55;305.33;;;;;;;20.11;62.46;99906.34;314267;31;3342;-71
2023/09/10 00:26:40;;;;;;;384.80;305.47;;;;;;;20.12;62.37;99910.72;311885;31;3208;-71
2023/09/10 00:26:50;;;;;;;384.63;303.67;;;;;;;20.12;62.70;99904.53;310954;31;4541;-71
2023/09/10 00:27:01;;;;;;;386.42;306.42;;;;;;;20.12;62.50;99905.38;311586;31;1352;-71
2023/09/10 00:27:13;;;;;;;387.60;311.63;;;;;;;20.11;62.89;99909.00;307933;31;5710;-71
2023/09/10 00:27:23;;;;;;;388.50;315.83;;;;;;;20.10;62.70;99903.81;305678;32;5921;-71
2023/09/10 00:27:34;;;;;;;388.35;315.48;;;;;;;20.08;62.83;99909.25;305062;32;1299;-71
2023/09/10 00:27:44;;;;;;;390.77;318.27;;;;;;;20.07;62.83;99912.88;308358;31;5767;-71
2023/09/10 00:27:56;;;;;;;389.77;317.80;;;;;;;20.08;62.86;99908.41;307948;31;6193;-71
2023/09/10 00:28:07;;;;;;;392.27;323.95;;;;;;;20.06;63.30;99911.16;307169;32;6140;-71
2023/09/10 00:28:17;;;;;;;390.37;321.50;;;;;;;20.04;62.98;99907.78;307317;32;804;-71
2023/09/10 00:28:27;;;;;;;392.05;322.42;;;;;;;20.03;63.10;99903.41;308861;31;6284;-71
2023/09/10 00:28:38;;;;;;;391.23;320.97;;;;;;;20.03;63.17;99902.56;305503;32;4506;-71
2023/09/10 00:28:49;;;;;;;389.90;317.57;;;;;;;20.03;63.17;99903.41;303764;32;872;-71
2023/09/10 00:29:00;;;;;;;388.17;314.35;;;;;;;20.04;63.14;99905.13;302050;32;4910;-71
2023/09/10 00:29:10;;;;;;;389.97;315.27;;;;;;;20.05;62.97;99914.78;300050;32;6774;-71
2023/09/10 00:29:20;;;;;;;395.33;320.05;;;;;;;20.06;63.24;99908.50;299074;32;7948;-71
2023/09/10 00:29:31;;;;;;;396.50;323.33;;;;;;;20.05;63.03;99905.97;297968;33;889;-70
2023/09/10 00:29:41;;;;;;;393.65;321.42;;;;;;;20.05;63.04;99904.16;298609;32;7266;-70
2023/09/10 00:29:52;;;;;;;392.07;320.63;;;;;;;20.06;62.98;99911.16;299777;32;7836;-71
2023/09/10 00:30:03;;;;;;;390.20;318.43;;;;;;;20.06;63.24;99905.84;298884;33;881;-71
2023/09/10 00:30:13;;;;;;;389.90;318.92;;;;;;;20.06;63.23;99905.00;296803;33;9061;-71
2023/09/10 00:30:25;;;;;;;390.33;321.10;;;;;;;20.07;63.12;99902.22;296531;32;8489;-71
2023/09/10 00:30:36;;;;;;;390.02;321.85;;;;;;;20.09;63.23;99910.09;297923;33;8687;-71
2023/09/10 00:30:55;;;;;;;389.33;319.85;;;;;;;20.09;63.03;99907.44;294825;33;775;-71
2023/09/10 00:31:07;;;;;;;386.13;311.15;;;;;;;20.07;63.36;99899.56;295681;33;6476;-71
2023/09/10 00:31:18;;;;;;;387.20;311.38;;;;;;;20.09;63.24;99904.78;290992;34;1321;-71
2023/09/10 00:31:28;;;;;;;391.48;318.73;;;;;;;20.07;63.10;99896.91;291975;33;8264;-71
2023/09/10 00:31:38;;;;;;;395.53;323.37;;;;;;;20.08;63.01;99903.94;293895;33;10666;-71
2023/09/10 00:31:49;;;;;;;398.30;324.08;;;;;;;20.08;63.11;99905.75;298003;33;1080;-71
2023/09/10 00:31:59;;;;;;;396.63;323.63;;;;;;;20.09;63.20;99902.13;297264;33;10348;-71
2023/09/10 00:32:10;;;;;;;394.67;322.17;;;;;;;20.09;63.17;99904.78;294448;33;10223;-71
2023/09/10 00:32:21;;;;;;;390.58;319.52;;;;;;;20.07;63.29;99902.22;293824;33;1234;-71
2023/09/10 00:32:32;;;;;;;394.45;313.60;;;;;;;20.05;63.52;99898.84;287258;34;943;-71
2023/09/10 00:34:57;;;;;;;380.18;297.97;;;;;;;20.00;63.42;99911.63;2500796;27;20352;-71
2023/09/10 00:35:08;;;;;;;386.77;312.13;;;;;;;19.99;63.63;99909.94;351386;28;1299;-71
2023/09/10 00:35:18;;;;;;;387.98;318.63;;;;;;;20.01;63.68;99907.16;348702;28;1367;-71
2023/09/10 00:35:29;;;;;;;389.33;320.80;;;;;;;20.00;63.48;99906.31;347274;28;1185;-72
2023/09/10 00:35:39;;;;;;;389.38;322.77;;;;;;;20.01;63.70;99902.69;348623;28;1331;-72
2023/09/10 00:35:49;;;;;;;389.90;323.93;;;;;;;20.00;63.43;99901.00;348831;28;1222;-71
2023/09/10 00:36:00;;;;;;;389.23;321.77;;;;;;;20.00;63.64;99902.81;347200;28;812;-71
2023/09/10 00:36:10;;;;;;;387.92;315.55;;;;;;;20.00;63.64;99906.31;348778;28;946;-71
2023/09/10 00:36:21;;;;;;;385.60;306.63;;;;;;;19.99;63.61;99909.09;350145;28;874;-71
2023/09/10 00:36:31;;;;;;;388.63;306.15;;;;;;;19.99;63.62;99904.63;348791;28;902;-71
2023/09/10 00:36:41;;;;;;;391.43;311.23;;;;;;;19.98;64.05;99902.91;348746;28;827;-71
2023/09/10 00:36:52;;;;;;;393.40;316.07;;;;;;;19.97;63.76;99901.22;348660;28;1308;-71
2023/09/10 00:37:03;;;;;;;390.30;314.92;;;;;;;19.98;63.91;99908.22;349626;28;915;-71
2023/09/10 00:37:16;;;;;;;391.30;320.75;;;;;;;19.97;63.68;99903.88;350107;28;1367;-71
2023/09/10 00:37:26;;;;;;;390.95;318.77;;;;;;;19.99;64.10;99904.63;348872;28;961;-71
2023/09/10 00:37:37;;;;;;;389.23;311.92;;;;;;;19.96;63.83;99899.53;349523;28;1251;-71
2023/09/10 00:37:47;;;;;;;388.87;312.53;;;;;;;19.96;63.87;99899.53;348752;28;876;-71
2023/09/10 00:37:58;;;;;;;386.60;308.43;;;;;;;19.93;63.60;99905.06;347165;28;1588;-71
2023/09/10 00:38:08;;;;;;;386.88;311.83;;;;;;;19.93;63.98;99905.91;347319;28;1022;-71
2023/09/10 00:38:19;;;;;;;386.07;308.60;;;;;;;19.93;63.81;99905.06;348592;28;1100;-71
2023/09/10 00:38:29;;;;;;;385.97;307.07;;;;;;;19.93;63.80;99903.25;348796;28;1147;-71
2023/09/10 00:38:40;;;;;;;385.63;300.33;;;;;;;19.94;63.91;99901.44;348641;28;927;-71
2023/09/10 00:38:51;;;;;;;386.63;304.57;;;;;;;19.95;63.74;99908.47;346442;28;1017;-71
2023/09/10 00:39:01;;;;;;;389.17;307.48;;;;;;;19.95;64.00;99900.50;346747;28;884;-71
2023/09/10 00:39:12;;;;;;;390.40;310.65;;;;;;;19.96;63.82;99909.31;347388;28;884;-71
2023/09/10 00:39:22;;;;;;;390.93;309.97;;;;;;;19.94;64.07;99904.09;346670;28;1137;-71
2023/09/10 00:39:33;;;;;;;390.55;312.17;;;;;;;19.95;64.13;99897.84;344486;28;1537;-71
2023/09/10 00:39:44;;;;;;;388.90;309.97;;;;;;;19.95;63.85;99900.50;343301;28;1211;-71
2023/09/10 00:39:54;;;;;;;385.48;308.48;;;;;;;19.95;64.09;99908.47;342960;28;861;-71
2023/09/10 00:40:05;;;;;;;386.35;308.83;;;;;;;19.96;64.17;99904.84;344639;28;1464;-71
2023/09/10 00:40:15;;;;;;;386.77;308.48;;;;;;;19.95;64.18;99903.16;346095;28;923;-71
2023/09/10 00:40:26;;;;;;;386.27;304.80;;;;;;;19.97;63.93;99906.53;348451;28;1423;-71
2023/09/10 00:40:36;;;;;;;387.73;307.73;;;;;;;19.97;64.16;99914.50;345808;28;1336;-71
2023/09/10 00:40:47;;;;;;;387.93;309.57;;;;;;;19.96;64.15;99904.84;344514;28;1183;-71
2023/09/10 00:40:57;;;;;;;392.63;321.27;;;;;;;19.94;63.96;99907.63;345730;28;1106;-71
2023/09/10 00:41:07;;;;;;;391.27;323.33;;;;;;;19.94;64.03;99902.31;342882;28;1207;-71
2023/09/10 00:41:18;;;;;;;388.67;318.73;;;;;;;19.94;64.23;99901.44;343578;28;1134;-71
2023/09/10 00:41:28;;;;;;;387.58;312.80;;;;;;;19.94;63.89;99907.63;347312;28;1325;-71
2023/09/10 00:41:38;;;;;;;389.90;315.47;;;;;;;19.92;63.92;99903.41;345960;28;1250;-71
2023/09/10 00:41:49;;;;;;;390.63;318.23;;;;;;;19.90;64.13;99903.53;346307;28;942;-71
2023/09/10 00:41:59;;;;;;;389.03;319.50;;;;;;;19.90;64.24;99910.66;344526;28;939;-71
2023/09/10 00:42:10;;;;;;;386.23;314.80;;;;;;;19.88;63.94;99902.78;344700;28;858;-71
2023/09/10 00:42:20;;;;;;;385.15;310.63;;;;;;;19.88;64.39;99904.59;348271;28;1428;-71
2023/09/10 00:42:31;;;;;;;384.87;309.13;;;;;;;19.88;64.08;99912.56;348761;28;773;-71
2023/09/10 00:42:41;;;;;;;384.98;306.73;;;;;;;19.85;64.14;99911.00;345897;28;951;-71
2023/09/10 00:42:53;;;;;;;387.70;309.00;;;;;;;19.85;64.08;99908.31;345173;28;1276;-71
2023/09/10 00:43:03;;;;;;;385.67;304.67;;;;;;;19.86;64.10;99906.53;342765;28;1342;-71
2023/09/10 00:43:14;;;;;;;386.88;304.90;;;;;;;19.86;64.30;99909.19;341826;28;894;-71
2023/09/10 00:43:24;;;;;;;386.57;308.17;;;;;;;19.85;64.04;99907.47;344874;28;1232;-71
2023/09/10 00:43:35;;;;;;;387.60;315.13;;;;;;;19.86;64.15;99909.19;344481;28;1632;-71
2023/09/10 00:43:45;;;;;;;387.33;314.73;;;;;;;19.88;64.31;99897.47;343231;28;1002;-71
2023/09/10 00:43:55;;;;;;;389.23;314.00;;;;;;;19.89;63.97;99906.28;342830;28;2020;-71
2023/09/10 00:44:06;;;;;;;387.80;309.07;;;;;;;19.89;63.93;99903.63;339982;29;1019;-71
2023/09/10 00:44:16;;;;;;;387.35;311.08;;;;;;;19.87;63.99;99906.41;338065;29;980;-71
2023/09/10 00:44:27;;;;;;;387.70;311.87;;;;;;;19.88;64.05;99909.91;337962;29;1142;-71
2023/09/10 00:44:38;;;;;;;387.07;308.93;;;;;;;19.87;64.37;99900.25;340009;29;1191;-71
2023/09/10 00:44:49;;;;;;;387.67;310.05;;;;;;;19.88;64.55;99901.94;339995;28;1409;-71
2023/09/10 00:44:59;;;;;;;386.70;308.27;;;;;;;19.88;64.21;99907.25;337980;29;1107;-71
2023/09/10 00:45:10;;;;;;;388.27;314.77;;;;;;;19.88;64.36;99901.94;339090;29;1912;-71
2023/09/10 00:45:20;;;;;;;387.15;309.10;;;;;;;19.89;64.32;99908.94;339657;28;1724;-71
2023/09/10 00:45:32;;;;;;;386.83;307.40;;;;;;;19.90;64.09;99905.34;338056;29;928;-71
2023/09/10 00:45:42;;;;;;;386.95;303.67;;;;;;;19.89;64.29;99906.28;337879;29;1379;-71
2023/09/10 00:45:53;;;;;;;385.10;299.50;;;;;;;19.91;64.28;99901.72;337700;29;2329;-71
2023/09/10 00:46:03;;;;;;;383.50;297.67;;;;;;;19.90;64.18;99902.66;335044;29;1665;-71
2023/09/10 00:46:13;;;;;;;382.83;298.80;;;;;;;19.88;64.21;99900.13;334131;29;1209;-71
2023/09/10 00:46:24;;;;;;;385.13;302.83;;;;;;;19.86;64.48;99903.88;337921;29;877;-71
2023/09/10 00:46:34;;;;;;;387.15;309.60;;;;;;;19.84;64.51;99905.78;338086;29;1302;-71
2023/09/10 00:46:44;;;;;;;386.77;309.10;;;;;;;19.84;64.12;99903.13;339331;29;1233;-71
2023/09/10 00:46:56;;;;;;;387.60;312.87;;;;;;;19.84;64.14;99905.78;331793;29;1804;-71
2023/09/10 00:47:06;;;;;;;386.23;309.33;;;;;;;19.84;64.23;99901.31;330174;29;2230;-71
2023/09/10 00:47:16;;;;;;;386.47;311.57;;;;;;;19.84;64.63;99906.63;331290;29;2280;-71
2023/09/10 00:47:27;;;;;;;386.63;308.83;;;;;;;19.84;64.60;99900.47;330427;29;836;-71
2023/09/10 00:47:43;;;;;;;386.65;309.02;;;;;;;19.83;64.81;99898.78;330655;29;2448;-70
2023/09/10 00:47:53;;;;;;;385.02;306.00;;;;;;;19.82;64.24;99902.41;328225;29;2563;-70
2023/09/10 00:48:04;;;;;;;387.08;304.75;;;;;;;19.82;64.41;99905.06;326833;29;2678;-70
2023/09/10 00:48:14;;;;;;;387.90;306.57;;;;;;;19.79;64.72;99906.13;326752;30;911;-70
2023/09/10 00:48:25;;;;;;;390.33;315.00;;;;;;;19.80;63.89;99901.66;327684;30;2004;-70
2023/09/10 00:48:37;;;;;;;386.83;311.80;;;;;;;19.78;64.84;99900.94;325852;30;1344;-70
2023/09/10 00:48:47;;;;;;;382.42;301.20;;;;;;;19.77;64.31;99905.38;324756;30;2054;-70
2023/09/10 00:48:58;;;;;;;381.50;297.87;;;;;;;19.75;64.38;99903.81;321885;30;904;-70
2023/09/10 00:49:08;;;;;;;383.65;299.20;;;;;;;19.75;64.34;99903.81;322265;30;2873;-70
2023/09/10 00:49:19;;;;;;;386.65;306.08;;;;;;;19.72;64.28;99898.72;323361;30;2742;-70
2023/09/10 00:49:30;;;;;;;387.30;309.00;;;;;;;19.72;64.50;99906.69;325394;30;1198;-70
2023/09/10 00:49:40;;;;;;;386.70;307.52;;;;;;;19.70;64.60;99904.16;323545;30;3363;-70
2023/09/10 00:49:51;;;;;;;385.30;305.02;;;;;;;19.70;64.78;99900.63;322992;30;3362;-70
2023/09/10 00:50:01;;;;;;;385.47;300.53;;;;;;;19.71;64.87;99899.69;321890;30;1193;-70
2023/09/10 00:50:15;;;;;;;385.17;303.35;;;;;;;19.70;64.45;99905.97;319524;30;1575;-70
2023/09/10 00:50:25;;;;;;;386.52;304.73;;;;;;;19.69;64.84;99901.59;321177;30;5244;-70
2023/09/10 00:50:35;;;;;;;386.52;305.45;;;;;;;19.71;64.71;99905.00;316763;31;2406;-70
2023/09/10 00:50:46;;;;;;;382.57;297.10;;;;;;;19.72;64.58;99904.03;318308;31;876;-70
2023/09/10 00:50:56;;;;;;;380.80;291.77;;;;;;;19.72;64.65;99898.72;316595;31;2265;-70
2023/09/10 00:51:07;;;;;;;381.97;293.87;;;;;;;19.72;64.37;99896.91;313317;31;2901;-70
2023/09/10 00:51:18;;;;;;;384.60;296.80;;;;;;;19.73;64.17;99903.06;312756;30;3698;-70
2023/09/10 00:51:28;;;;;;;385.27;299.17;;;;;;;19.73;64.51;99903.06;311427;31;1335;-70
2023/09/10 00:51:39;;;;;;;384.17;295.47;;;;;;;19.74;64.15;99908.28;312441;31;3895;-70
2023/09/10 00:51:49;;;;;;;382.10;292.05;;;;;;;19.73;64.42;99903.06;314629;30;4388;-70
2023/09/10 00:52:00;;;;;;;381.93;290.03;;;;;;;19.71;64.37;99902.34;318289;31;877;-70
2023/09/10 00:52:11;;;;;;;383.52;295.52;;;;;;;19.69;64.37;99901.59;310016;31;4537;-70
2023/09/10 00:52:25;;;;;;;387.10;298.25;;;;;;;19.67;64.23;99903.53;310756;31;3291;-70
2023/09/10 00:52:36;;;;;;;386.55;300.33;;;;;;;19.66;64.53;99901.81;310287;31;3225;-70
2023/09/10 00:52:49;;;;;;;386.83;295.33;;;;;;;19.66;64.46;99902.66;309308;31;1266;-70
2023/09/10 00:52:59;;;;;;;385.35;292.38;;;;;;;19.69;64.75;99906.91;305948;32;5453;-70
2023/09/10 00:53:10;;;;;;;384.23;285.45;;;;;;;19.71;64.48;99907.66;307461;32;3260;-70
2023/09/10 00:53:20;;;;;;;383.83;287.33;;;;;;;19.72;64.39;99901.38;304615;32;4427;-70